Overview Statistics Trail Chart Weather Telemetry Raw packets
 

This is the latest recevied weather packets stored in our database for station/object W7BTL. If no packets are shown the sender has not sent any weather packets the latest 10 day(s).

<< 30 31 32 33 34 35 36 >>
Time Temp. Humidity Pressure Rain* Wind** Luminosity Snow
1788451305 23.89° C 64% 1014.4 hPa 0 mm - 382 W/m² -
1788451004 23.89° C 65% 1014.2 hPa 0 mm - 356 W/m² -
1788450699 23.33° C 66% 1014.2 hPa 0 mm - 324 W/m² -
1788450395 22.22° C 69% 1014.3 hPa 0 mm - 385 W/m² -
1788450091 22.22° C 70% 1014.4 hPa 0 mm - 164 W/m² -
1788449786 22.78° C 68% 1014.3 hPa 0 mm - 102 W/m² -
1788449482 22.78° C 68% 1014.3 hPa 0 mm - 137 W/m² -
1788449178 21.67° C 69% 1014.1 hPa 0 mm - 314 W/m² -
1788448874 21.11° C 71% 1014.3 hPa 0 mm - 134 W/m² -
1788448573 21.11° C 71% 1014 hPa 0 mm - 109 W/m² -
1788448269 21.11° C 72% 1014.3 hPa 0 mm - 116 W/m² -
1788447968 21.11° C 71% 1014.2 hPa 0 mm - 125 W/m² -
1788447663 21.67° C 71% 1014.2 hPa 0 mm - 103 W/m² -
1788447363 21.67° C 70% 1014.2 hPa 0 mm - 113 W/m² -
1788447058 21.67° C 70% 1014.3 hPa 0 mm - 124 W/m² -
1788446757 21.67° C 69% 1014.1 hPa 0 mm - 122 W/m² -
1788446453 21.67° C 70% 1014.1 hPa 0 mm - 132 W/m² -
1788446149 21.11° C 71% 1013.9 hPa 0 mm - 83 W/m² -
1788445845 20.56° C 72% 1014.1 hPa 0 mm - 81 W/m² -
1788445540 20.56° C 73% 1013.9 hPa 0 mm - 70 W/m² -
1788445237 20° C 73% 1013.5 hPa 0 mm - 61 W/m² -
1788444932 20° C 75% 1013.5 hPa 0 mm - 54 W/m² -
1788444627 18.89° C 78% 1013.5 hPa 0 mm - 45 W/m² -
1788444323 18.33° C 80% 1013.6 hPa 0 mm - 38 W/m² -
1788444018 17.78° C 84% 1013.5 hPa 0 mm - 33 W/m² -

* Rain latest hour (hover to see other rain measurements)
** Current wind speed in m/s (hover to see current wind gust speed)